createdAt,value
2018-05-09T00:00:59.098Z,84.76
2018-05-09T00:01:59.105Z,84.28
2018-05-09T00:02:59.119Z,85.14
2018-05-09T00:03:59.131Z,85.24
2018-05-09T00:04:59.144Z,84.76
2018-05-09T00:05:59.162Z,84.47
2018-05-09T00:06:59.170Z,84.95
2018-05-09T00:07:59.183Z,85.04
2018-05-09T00:08:59.201Z,85.04
2018-05-09T00:09:59.212Z,84.85
2018-05-09T00:10:59.238Z,85.14
2018-05-09T00:11:59.265Z,84.76
2018-05-09T00:12:59.250Z,85.14
2018-05-09T00:13:59.261Z,85.14
2018-05-09T00:14:59.275Z,85.33
2018-05-09T00:15:59.297Z,84.76
2018-05-09T00:16:59.309Z,85.33
2018-05-09T00:17:59.316Z,85.14
2018-05-09T00:18:59.329Z,84.76
2018-05-09T00:19:59.341Z,84.66
2018-05-09T00:20:59.360Z,84.56
2018-05-09T00:21:59.367Z,85.33
2018-05-09T00:22:59.384Z,85.24
2018-05-09T00:23:59.393Z,85.61
2018-05-09T00:24:59.412Z,85.61
2018-05-09T00:25:59.419Z,85.61
2018-05-09T00:26:59.435Z,85.14
2018-05-09T00:27:59.446Z,85.14
2018-05-09T00:28:59.458Z,85.33
2018-05-09T00:29:59.473Z,85.90
2018-05-09T00:30:59.487Z,85.80
2018-05-09T00:31:59.497Z,85.42
2018-05-09T00:32:59.514Z,85.52
2018-05-09T00:33:59.577Z,85.42
2018-05-09T00:34:59.538Z,85.80
2018-05-09T00:35:59.553Z,85.71
2018-05-09T00:36:59.565Z,85.61
2018-05-09T00:37:59.578Z,85.14
2018-05-09T00:38:59.592Z,85.42
2018-05-09T00:39:59.603Z,85.24
2018-05-09T00:40:59.616Z,85.33
2018-05-09T00:41:59.630Z,86.28
2018-05-09T00:42:59.643Z,85.33
2018-05-09T00:43:59.655Z,85.42
2018-05-09T00:44:59.670Z,85.71
2018-05-09T00:45:59.684Z,85.61
2018-05-09T00:46:59.696Z,85.52
2018-05-09T00:47:59.710Z,85.90
2018-05-09T00:48:59.725Z,86.28
2018-05-09T00:49:59.736Z,85.61
2018-05-09T00:50:59.750Z,86.18
2018-05-09T00:51:59.763Z,85.99
2018-05-09T00:52:59.778Z,85.52
2018-05-09T00:53:59.789Z,85.80
2018-05-09T00:54:59.803Z,85.71
2018-05-09T00:55:59.813Z,85.52
2018-05-09T00:56:59.829Z,85.52
2018-05-09T00:57:59.842Z,85.42
2018-05-09T00:58:59.854Z,85.42
2018-05-09T00:59:59.870Z,85.33
2018-05-09T01:00:59.882Z,85.80
2018-05-09T01:01:59.901Z,85.80
2018-05-09T01:02:59.909Z,86.09
2018-05-09T01:03:59.921Z,85.99
2018-05-09T01:04:59.935Z,85.80
2018-05-09T01:05:59.948Z,85.42
2018-05-09T01:06:59.962Z,85.52
2018-05-09T01:07:59.975Z,85.90
2018-05-09T01:08:59.990Z,85.14
2018-05-09T01:10:00.004Z,85.99
2018-05-09T01:11:00.016Z,85.99
2018-05-09T01:12:00.028Z,85.80
2018-05-09T01:13:00.045Z,85.52
2018-05-09T01:14:00.056Z,86.28
2018-05-09T01:15:00.071Z,85.80
2018-05-09T01:16:00.082Z,86.09
2018-05-09T01:17:00.095Z,85.99
2018-05-09T01:18:00.109Z,85.80
2018-05-09T01:19:00.126Z,86.47
2018-05-09T01:20:00.134Z,86.28
2018-05-09T01:21:00.147Z,85.80
2018-05-09T01:22:00.162Z,85.90
2018-05-09T01:23:00.176Z,86.47
2018-05-09T01:24:00.187Z,85.99
2018-05-09T01:25:00.200Z,85.80
2018-05-09T01:26:00.215Z,86.09
2018-05-09T01:27:00.228Z,86.18
2018-05-09T01:28:00.238Z,85.90
2018-05-09T01:29:00.255Z,85.24
2018-05-09T01:30:00.267Z,85.80
2018-05-09T01:31:00.281Z,86.18
2018-05-09T01:32:00.296Z,85.80
2018-05-09T01:33:00.307Z,85.61
2018-05-09T01:34:00.320Z,85.42
2018-05-09T01:35:00.332Z,85.80
2018-05-09T01:36:00.345Z,86.18
2018-05-09T01:37:00.358Z,86.09
2018-05-09T01:38:00.371Z,85.61
2018-05-09T01:39:00.385Z,85.86
2018-05-09T01:40:00.397Z,85.38
2018-05-09T01:41:00.409Z,85.38
2018-05-09T01:42:00.423Z,86.24
2018-05-09T01:43:00.437Z,85.86
2018-05-09T01:44:00.450Z,86.24
2018-05-09T01:45:00.462Z,85.95
2018-05-09T01:46:00.478Z,85.38
2018-05-09T01:47:00.488Z,84.91
2018-05-09T01:48:00.500Z,85.28
2018-05-09T01:49:00.514Z,86.05
2018-05-09T01:50:00.527Z,85.76
2018-05-09T01:51:00.540Z,85.95
2018-05-09T01:52:00.551Z,85.38
2018-05-09T01:53:00.568Z,85.66
2018-05-09T01:54:00.578Z,86.14
2018-05-09T01:55:00.674Z,86.14
2018-05-09T01:56:00.603Z,85.28
2018-05-09T01:57:00.617Z,85.38
2018-05-09T01:58:00.628Z,85.76
2018-05-09T01:59:00.640Z,85.15
2018-05-09T02:00:00.653Z,85.72
2018-05-09T02:01:00.666Z,86.10
2018-05-09T02:02:00.679Z,86.10
2018-05-09T02:03:00.691Z,85.72
2018-05-09T02:04:00.705Z,84.86
2018-05-09T02:05:00.715Z,85.53
2018-05-09T02:06:00.743Z,85.24
2018-05-09T02:07:00.741Z,84.95
2018-05-09T02:08:00.753Z,85.81
2018-05-09T02:09:00.766Z,85.62
2018-05-09T02:10:00.779Z,85.15
2018-05-09T02:11:00.799Z,85.24
2018-05-09T02:12:00.802Z,85.43
2018-05-09T02:13:00.816Z,85.43
2018-05-09T02:14:00.831Z,85.43
2018-05-09T02:15:00.840Z,85.53
2018-05-09T02:16:00.853Z,85.72
2018-05-09T02:17:00.865Z,84.86
2018-05-09T02:18:00.875Z,86.00
2018-05-09T02:19:00.889Z,85.72
2018-05-09T02:20:00.904Z,85.62
2018-05-09T02:21:00.913Z,85.81
2018-05-09T02:22:00.924Z,85.91
2018-05-09T02:23:00.938Z,85.62
2018-05-09T02:24:01.049Z,85.72
2018-05-09T02:25:00.963Z,85.24
2018-05-09T02:26:00.975Z,85.81
2018-05-09T02:27:01.037Z,86.00
2018-05-09T02:28:00.999Z,85.43
2018-05-09T02:29:01.012Z,86.10
2018-05-09T02:30:01.024Z,85.91
2018-05-09T02:31:01.040Z,85.91
2018-05-09T02:32:01.046Z,86.10
2018-05-09T02:33:01.060Z,85.53
2018-05-09T02:34:01.076Z,84.77
2018-05-09T02:35:01.084Z,84.95
2018-05-09T02:36:01.094Z,85.81
2018-05-09T02:37:01.108Z,85.15
2018-05-09T02:38:01.119Z,85.49
2018-05-09T02:39:01.133Z,85.05
2018-05-09T02:40:01.145Z,85.20
2018-05-09T02:41:01.157Z,85.39
2018-05-09T02:42:01.169Z,85.39
2018-05-09T02:43:01.181Z,85.39
2018-05-09T02:44:01.197Z,85.58
2018-05-09T02:45:01.208Z,85.77
2018-05-09T02:46:01.218Z,85.86
2018-05-09T02:47:01.231Z,85.49
2018-05-09T02:48:01.242Z,85.11
2018-05-09T02:49:01.253Z,86.10
2018-05-09T02:50:01.530Z,85.30
2018-05-09T02:51:01.282Z,85.72
2018-05-09T02:52:01.289Z,85.53
2018-05-09T02:53:01.303Z,85.81
2018-05-09T02:54:01.314Z,86.57
2018-05-09T02:55:01.339Z,85.81
2018-05-09T02:56:01.339Z,85.34
2018-05-09T02:57:01.349Z,85.72
2018-05-09T02:58:01.364Z,85.81
2018-05-09T02:59:01.375Z,85.43
2018-05-09T03:00:01.389Z,85.72
2018-05-09T03:01:01.399Z,85.43
2018-05-09T03:02:01.415Z,85.81
2018-05-09T03:03:01.427Z,85.53
2018-05-09T03:04:01.440Z,85.53
2018-05-09T03:05:01.449Z,85.72
2018-05-09T03:06:01.463Z,85.62
2018-05-09T03:07:01.471Z,85.72
2018-05-09T03:08:01.485Z,84.86
2018-05-09T03:09:01.501Z,84.95
2018-05-09T03:10:01.508Z,85.53
2018-05-09T03:11:01.518Z,85.15
2018-05-09T03:12:01.530Z,85.43
2018-05-09T03:13:01.541Z,84.82
2018-05-09T03:14:01.560Z,84.91
2018-05-09T03:15:01.568Z,85.39
2018-05-09T03:16:01.579Z,85.01
2018-05-09T03:17:01.591Z,85.01
2018-05-09T03:18:01.604Z,84.72
2018-05-09T03:19:01.616Z,85.39
2018-05-09T03:20:01.628Z,84.63
2018-05-09T03:21:01.638Z,85.30
2018-05-09T03:22:01.653Z,85.39
2018-05-09T03:23:01.662Z,85.96
2018-05-09T03:24:01.677Z,85.30
2018-05-09T03:25:01.685Z,85.20
2018-05-09T03:26:01.697Z,85.39
2018-05-09T03:27:01.714Z,85.39
2018-05-09T03:28:01.724Z,85.86
2018-05-09T03:29:01.732Z,85.68
2018-05-09T03:30:01.750Z,85.30
2018-05-09T03:31:01.758Z,85.20
2018-05-09T03:32:01.768Z,85.77
2018-05-09T03:33:01.781Z,85.68
2018-05-09T03:34:01.793Z,85.30
2018-05-09T03:35:01.813Z,86.00
2018-05-09T03:36:01.839Z,85.30
2018-05-09T03:37:01.828Z,85.49
2018-05-09T03:38:01.848Z,85.77
2018-05-09T03:39:01.853Z,85.11
2018-05-09T03:40:01.863Z,85.58
2018-05-09T03:41:01.876Z,84.72
2018-05-09T03:42:01.889Z,85.01
2018-05-09T03:43:01.901Z,85.68
2018-05-09T03:44:01.910Z,85.39
2018-05-09T03:45:01.922Z,85.49
2018-05-09T03:46:01.938Z,85.30
2018-05-09T03:47:01.947Z,85.58
2018-05-09T03:48:01.959Z,85.39
2018-05-09T03:49:01.969Z,85.20
2018-05-09T03:50:01.981Z,85.39
2018-05-09T03:51:01.993Z,84.82
2018-05-09T03:52:02.004Z,85.39
2018-05-09T03:53:02.017Z,85.39
2018-05-09T03:54:02.027Z,85.20
2018-05-09T03:55:02.041Z,85.20
2018-05-09T03:56:02.052Z,85.39
2018-05-09T03:57:02.062Z,85.39
2018-05-09T03:58:02.082Z,85.30
2018-05-09T03:59:02.087Z,85.58
2018-05-09T04:00:02.098Z,85.39
2018-05-09T04:01:02.119Z,85.86
2018-05-09T04:02:02.121Z,85.39
2018-05-09T04:03:02.135Z,85.77
2018-05-09T04:04:02.143Z,85.39
2018-05-09T04:05:02.155Z,85.49
2018-05-09T04:06:02.169Z,85.11
2018-05-09T04:07:02.180Z,85.30
2018-05-09T04:08:02.190Z,85.49
2018-05-09T04:09:02.203Z,85.39
2018-05-09T04:10:02.215Z,85.58
2018-05-09T04:11:02.227Z,85.77
2018-05-09T04:12:02.239Z,86.05
2018-05-09T04:13:02.249Z,85.39
2018-05-09T04:14:02.261Z,85.49
2018-05-09T04:15:02.273Z,86.05
2018-05-09T04:16:02.283Z,85.01
2018-05-09T04:17:02.295Z,85.11
2018-05-09T04:18:02.376Z,86.15
2018-05-09T04:19:02.322Z,85.20
2018-05-09T04:20:02.331Z,85.86
2018-05-09T04:21:02.342Z,86.05
2018-05-09T04:22:02.360Z,85.39
2018-05-09T04:23:02.366Z,85.96
2018-05-09T04:24:02.382Z,85.49
2018-05-09T04:25:02.389Z,86.43
2018-05-09T04:26:02.406Z,86.05
2018-05-09T04:27:02.416Z,86.24
2018-05-09T04:28:02.428Z,86.34
2018-05-09T04:29:02.437Z,86.05
2018-05-09T04:30:02.457Z,86.15
2018-05-09T04:31:02.463Z,86.24
2018-05-09T04:32:02.475Z,86.24
2018-05-09T04:33:02.483Z,86.15
2018-05-09T04:34:02.497Z,86.38
2018-05-09T04:35:02.513Z,86.24
2018-05-09T04:36:02.524Z,86.43
2018-05-09T04:37:02.531Z,86.34
2018-05-09T04:38:02.546Z,86.05
2018-05-09T04:39:02.558Z,86.00
2018-05-09T04:40:02.568Z,86.43
2018-05-09T04:41:02.578Z,86.53
2018-05-09T04:42:02.632Z,86.38
2018-05-09T04:43:02.603Z,87.10
2018-05-09T04:44:02.614Z,86.53
2018-05-09T04:45:02.631Z,86.53
2018-05-09T04:46:02.638Z,86.57
2018-05-09T04:47:02.651Z,86.67
2018-05-09T04:48:02.663Z,86.67
2018-05-09T04:49:02.672Z,86.19
2018-05-09T04:50:02.684Z,86.76
2018-05-09T04:51:02.697Z,86.38
2018-05-09T04:52:02.711Z,86.47
2018-05-09T04:53:02.720Z,86.29
2018-05-09T04:54:02.733Z,86.10
2018-05-09T04:55:02.748Z,86.00
2018-05-09T04:56:02.754Z,86.67
2018-05-09T04:57:02.767Z,86.10
2018-05-09T04:58:02.781Z,86.47
2018-05-09T04:59:02.794Z,86.47
2018-05-09T05:00:02.803Z,86.10
2018-05-09T05:01:02.820Z,86.29
2018-05-09T05:02:02.827Z,85.91
2018-05-09T05:03:02.839Z,86.38
2018-05-09T05:04:02.851Z,85.72
2018-05-09T05:05:02.862Z,86.38
2018-05-09T05:06:02.876Z,86.19
2018-05-09T05:07:02.955Z,86.29
2018-05-09T05:08:02.899Z,86.47
2018-05-09T05:09:02.912Z,85.91
2018-05-09T05:10:02.926Z,86.19
2018-05-09T05:11:02.937Z,86.29
2018-05-09T05:12:02.949Z,86.00
2018-05-09T05:13:02.959Z,86.00
2018-05-09T05:14:02.972Z,86.19
2018-05-09T05:15:02.985Z,85.72
2018-05-09T05:16:02.998Z,86.38
2018-05-09T05:17:03.009Z,86.10
2018-05-09T05:18:03.024Z,85.72
2018-05-09T05:19:03.033Z,85.15
2018-05-09T05:20:03.044Z,86.57
2018-05-09T05:21:03.055Z,85.91
2018-05-09T05:22:03.067Z,86.29
2018-05-09T05:23:03.080Z,85.72
2018-05-09T05:24:03.100Z,86.38
2018-05-09T05:25:03.108Z,86.10
2018-05-09T05:26:03.115Z,86.29
2018-05-09T05:27:03.151Z,86.29
2018-05-09T05:28:03.140Z,85.62
2018-05-09T05:29:03.151Z,86.19
2018-05-09T05:30:03.167Z,86.47
2018-05-09T05:31:03.180Z,85.34
2018-05-09T05:32:03.191Z,85.05
2018-05-09T05:33:03.200Z,85.53
2018-05-09T05:34:03.214Z,86.10
2018-05-09T05:35:03.225Z,84.95
2018-05-09T05:36:03.237Z,85.72
2018-05-09T05:37:03.249Z,85.81
2018-05-09T05:38:03.262Z,84.77
2018-05-09T05:39:03.275Z,85.53
2018-05-09T05:40:03.286Z,85.53
2018-05-09T05:41:03.299Z,84.95
2018-05-09T05:42:03.308Z,85.72
2018-05-09T05:43:03.326Z,85.24
2018-05-09T05:44:03.336Z,86.29
2018-05-09T05:45:03.401Z,86.19
2018-05-09T05:46:03.358Z,86.57
2018-05-09T05:47:03.371Z,86.38
2018-05-09T05:48:03.381Z,85.81
2018-05-09T05:49:03.393Z,85.34
2018-05-09T05:50:03.406Z,84.58
2018-05-09T05:51:03.419Z,85.43
2018-05-09T05:52:03.428Z,85.62
2018-05-09T05:53:03.440Z,85.34
2018-05-09T05:54:03.454Z,86.00
2018-05-09T05:55:03.468Z,84.39
2018-05-09T05:56:03.481Z,84.86
2018-05-09T05:57:03.488Z,82.49
2018-05-09T05:58:03.510Z,87.24
2018-05-09T05:59:03.516Z,84.01
2018-05-09T06:00:03.527Z,85.43
2018-05-09T06:01:03.540Z,85.72
2018-05-09T06:02:03.553Z,82.77
2018-05-09T06:03:03.564Z,84.01
2018-05-09T06:04:03.579Z,84.86
2018-05-09T06:05:03.588Z,86.05
2018-05-09T06:06:03.597Z,85.66
2018-05-09T06:07:03.611Z,85.76
2018-05-09T06:08:03.702Z,84.05
2018-05-09T06:09:03.636Z,84.81
2018-05-09T06:10:03.647Z,85.28
2018-05-09T06:11:03.660Z,85.00
2018-05-09T06:12:03.671Z,83.39
2018-05-09T06:13:03.683Z,85.28
2018-05-09T06:14:03.695Z,85.28
2018-05-09T06:15:03.708Z,84.05
2018-05-09T06:16:03.723Z,85.57
2018-05-09T06:17:03.733Z,87.66
2018-05-09T06:18:03.745Z,84.81
2018-05-09T06:19:03.758Z,80.05
2018-05-09T06:20:03.769Z,85.19
2018-05-09T06:21:03.786Z,85.57
2018-05-09T06:22:03.793Z,85.10
2018-05-09T06:23:03.806Z,83.58
2018-05-09T06:24:04.021Z,83.10
2018-05-09T06:25:03.831Z,84.52
2018-05-09T06:26:03.841Z,85.19
2018-05-09T06:27:03.855Z,85.28
2018-05-09T06:28:03.865Z,84.62
2018-05-09T06:29:03.878Z,81.86
2018-05-09T06:30:03.892Z,82.34
2018-05-09T06:31:03.939Z,84.05
2018-05-09T06:32:03.915Z,85.19
2018-05-09T06:33:03.925Z,85.66
2018-05-09T06:34:03.939Z,84.05
2018-05-09T06:35:03.951Z,84.43
2018-05-09T06:36:03.969Z,84.62
2018-05-09T06:37:03.977Z,85.24
2018-05-09T06:38:03.990Z,84.14
2018-05-09T06:39:03.998Z,83.95
2018-05-09T06:40:04.012Z,84.81
2018-05-09T06:41:04.023Z,85.00
2018-05-09T06:42:04.034Z,85.95
2018-05-09T06:43:04.048Z,85.95
2018-05-09T06:44:04.059Z,85.28
2018-05-09T06:45:04.072Z,84.91
2018-05-09T06:46:04.083Z,85.28
2018-05-09T06:47:04.096Z,84.72
2018-05-09T06:48:04.113Z,85.57
2018-05-09T06:49:04.120Z,85.00
2018-05-09T06:50:04.230Z,82.91
2018-05-09T06:51:04.144Z,81.20
2018-05-09T06:52:04.156Z,85.19
2018-05-09T06:53:04.167Z,86.90
2018-05-09T06:54:04.182Z,86.61
2018-05-09T06:55:04.193Z,85.71
2018-05-09T06:56:04.207Z,84.38
2018-05-09T06:57:04.218Z,85.38
2018-05-09T06:58:04.229Z,85.28
2018-05-09T06:59:04.290Z,85.76
2018-05-09T07:00:04.382Z,85.71
2018-05-09T07:01:04.267Z,86.24
2018-05-09T07:02:04.278Z,85.04
2018-05-09T07:03:04.291Z,85.24
2018-05-09T07:04:04.303Z,85.61
2018-05-09T07:05:04.319Z,84.00
2018-05-09T07:06:04.425Z,86.38
2018-05-09T07:07:04.341Z,85.80
2018-05-09T07:08:04.351Z,80.95
2018-05-09T07:09:04.365Z,83.71
2018-05-09T07:10:04.376Z,85.14
2018-05-09T07:11:04.389Z,85.24
2018-05-09T07:12:04.402Z,86.18
2018-05-09T07:13:04.413Z,85.04
2018-05-09T07:14:04.425Z,85.04
2018-05-09T07:15:04.437Z,85.61
2018-05-09T07:16:04.451Z,85.52
2018-05-09T07:17:04.461Z,85.42
2018-05-09T07:18:04.474Z,84.76
2018-05-09T07:19:04.489Z,85.52
2018-05-09T07:20:04.504Z,85.42
2018-05-09T07:21:04.515Z,85.71
2018-05-09T07:22:04.525Z,84.95
2018-05-09T07:23:04.603Z,84.00
2018-05-09T07:24:04.549Z,82.95
2018-05-09T07:25:04.562Z,85.33
2018-05-09T07:26:04.573Z,85.14
2018-05-09T07:27:04.586Z,85.33
2018-05-09T07:28:04.597Z,81.52
2018-05-09T07:29:04.611Z,82.80
2018-05-09T07:30:04.624Z,83.65
2018-05-09T07:31:04.636Z,80.42
2018-05-09T07:32:04.648Z,84.80
2018-05-09T07:33:04.660Z,85.08
2018-05-09T07:34:04.675Z,84.13
2018-05-09T07:35:04.687Z,82.04
2018-05-09T07:36:04.698Z,84.42
2018-05-09T07:37:04.710Z,85.08
2018-05-09T07:38:04.724Z,84.42
2018-05-09T07:39:04.736Z,83.85
2018-05-09T07:40:04.747Z,86.61
2018-05-09T07:41:04.760Z,84.42
2018-05-09T07:42:04.776Z,84.04
2018-05-09T07:43:04.785Z,84.80
2018-05-09T07:44:04.798Z,83.37
2018-05-09T07:45:04.811Z,83.98
2018-05-09T07:46:04.826Z,87.41
2018-05-09T07:47:04.838Z,85.89
2018-05-09T07:48:04.847Z,81.85
2018-05-09T07:49:04.862Z,83.61
2018-05-09T07:50:04.873Z,84.46
2018-05-09T07:51:04.887Z,85.41
2018-05-09T07:52:04.901Z,84.75
2018-05-09T07:53:04.912Z,81.47
2018-05-09T07:54:04.927Z,84.89
2018-05-09T07:55:04.941Z,81.60
2018-05-09T07:56:04.950Z,85.22
2018-05-09T07:57:04.964Z,84.75
2018-05-09T07:58:04.975Z,78.85
2018-05-09T07:59:04.990Z,80.84
2018-05-09T08:00:05.004Z,83.84
2018-05-09T08:01:05.015Z,84.94
2018-05-09T08:02:05.028Z,84.75
2018-05-09T08:03:05.040Z,83.41
2018-05-09T08:04:05.054Z,82.75
2018-05-09T08:05:05.068Z,85.13
2018-05-09T08:06:05.132Z,84.75
2018-05-09T08:07:05.090Z,84.65
2018-05-09T08:08:05.106Z,82.08
2018-05-09T08:09:05.118Z,85.13
2018-05-09T08:10:05.132Z,82.93
2018-05-09T08:11:05.143Z,83.51
2018-05-09T08:12:05.162Z,82.23
2018-05-09T08:13:05.172Z,83.22
2018-05-09T08:14:05.184Z,84.94
2018-05-09T08:15:05.196Z,85.13
2018-05-09T08:16:05.208Z,83.80
2018-05-09T08:17:05.222Z,83.13
2018-05-09T08:18:05.236Z,83.70
2018-05-09T08:19:05.253Z,87.07
2018-05-09T08:20:05.262Z,77.07
2018-05-09T08:21:05.273Z,84.98
2018-05-09T08:22:05.287Z,87.55
2018-05-09T08:23:05.301Z,85.17
2018-05-09T08:24:05.314Z,82.89
2018-05-09T08:25:05.327Z,85.55
2018-05-09T08:26:05.338Z,82.21
2018-05-09T08:27:05.356Z,85.50
2018-05-09T08:28:05.367Z,86.65
2018-05-09T08:29:05.378Z,87.17
2018-05-09T08:30:05.392Z,88.41
2018-05-09T08:31:05.406Z,83.26
2018-05-09T08:32:05.418Z,86.32
2018-05-09T08:33:05.435Z,85.36
2018-05-09T08:34:05.445Z,85.46
2018-05-09T08:35:05.461Z,85.31
2018-05-09T08:36:05.472Z,85.02
2018-05-09T08:37:05.489Z,86.55
2018-05-09T08:38:05.502Z,84.92
2018-05-09T08:39:05.514Z,86.26
2018-05-09T08:40:05.527Z,84.16
2018-05-09T08:41:05.540Z,84.36
2018-05-09T08:42:05.553Z,82.49
2018-05-09T08:43:05.571Z,85.06
2018-05-09T08:44:05.725Z,82.11
2018-05-09T08:45:05.594Z,88.50
2018-05-09T08:46:05.608Z,87.35
2018-05-09T08:47:05.624Z,83.06
2018-05-09T08:48:05.636Z,87.83
2018-05-09T08:49:05.653Z,82.20
2018-05-09T08:50:05.665Z,85.06
2018-05-09T08:51:05.679Z,88.40
2018-05-09T08:52:05.691Z,86.59
2018-05-09T08:53:05.708Z,84.69
2018-05-09T08:54:05.719Z,86.30
2018-05-09T08:55:05.733Z,85.41
2018-05-09T08:56:05.746Z,85.12
2018-05-09T08:57:05.759Z,87.40
2018-05-09T08:58:05.778Z,86.36
2018-05-09T08:59:05.788Z,85.41
2018-05-09T09:00:05.802Z,86.36
2018-05-09T09:01:05.819Z,81.82
2018-05-09T09:02:05.831Z,86.11
2018-05-09T09:03:05.845Z,88.12
2018-05-09T09:04:05.859Z,83.92
2018-05-09T09:05:05.875Z,87.35
2018-05-09T09:06:05.887Z,87.40
2018-05-09T09:07:05.901Z,85.77
2018-05-09T09:08:05.919Z,81.04
2018-05-09T09:09:05.937Z,79.71
2018-05-09T09:10:05.945Z,76.37
2018-05-09T09:11:05.963Z,85.34
2018-05-09T09:12:05.972Z,79.80
2018-05-09T09:13:05.988Z,81.14
2018-05-09T09:14:06.003Z,81.71
2018-05-09T09:15:06.020Z,81.37
2018-05-09T09:16:06.031Z,78.56
2018-05-09T09:17:06.044Z,78.62
2018-05-09T09:18:06.057Z,84.48
2018-05-09T09:19:06.074Z,79.71
2018-05-09T09:20:06.087Z,79.80
2018-05-09T09:21:06.101Z,82.81
2018-05-09T09:22:06.117Z,81.85
2018-05-09T09:23:06.132Z,79.17
2018-05-09T09:24:06.145Z,80.93
2018-05-09T09:25:06.159Z,81.41
2018-05-09T09:26:06.174Z,79.79
2018-05-09T09:27:06.191Z,77.50
2018-05-09T09:28:06.203Z,77.78
2018-05-09T09:29:06.231Z,73.29
2018-05-09T09:30:06.234Z,66.99
2018-05-09T09:31:06.255Z,75.01
2018-05-09T09:32:06.262Z,72.33
2018-05-09T09:33:06.276Z,77.11
2018-05-09T09:34:06.293Z,76.73
2018-05-09T09:35:06.307Z,74.91
2018-05-09T09:36:06.321Z,75.01
2018-05-09T09:37:06.336Z,72.81
2018-05-09T09:38:06.352Z,74.82
2018-05-09T09:39:06.366Z,79.41
2018-05-09T09:40:06.382Z,79.06
2018-05-09T09:41:06.399Z,73.14
2018-05-09T09:42:06.417Z,74.76
2018-05-09T09:43:06.427Z,76.69
2018-05-09T09:44:06.441Z,80.51
2018-05-09T09:45:06.457Z,80.51
2018-05-09T09:46:06.474Z,79.80
2018-05-09T09:47:06.488Z,81.85
2018-05-09T09:48:06.504Z,80.47
2018-05-09T09:49:06.518Z,80.95
2018-05-09T09:50:06.533Z,83.43
2018-05-09T09:51:06.547Z,84.33
2018-05-09T09:52:06.563Z,83.47
2018-05-09T09:53:06.578Z,81.95
2018-05-09T09:54:06.593Z,81.09
2018-05-09T09:55:06.609Z,84.23
2018-05-09T09:56:06.623Z,83.43
2018-05-09T09:57:06.639Z,82.09
2018-05-09T09:58:06.658Z,83.53
2018-05-09T09:59:06.668Z,84.19
2018-05-09T10:00:06.688Z,78.93
2018-05-09T10:01:06.704Z,80.30
2018-05-09T10:02:06.714Z,75.35
2018-05-09T10:03:06.731Z,76.50
2018-05-09T10:04:06.747Z,75.42
2018-05-09T10:05:06.761Z,77.89
2018-05-09T10:06:06.776Z,77.45
2018-05-09T10:07:06.790Z,78.22
2018-05-09T10:08:06.830Z,77.74
2018-05-09T10:09:06.821Z,78.28
2018-05-09T10:10:06.837Z,80.41
2018-05-09T10:11:06.852Z,82.23
2018-05-09T10:12:06.870Z,81.27
2018-05-09T10:13:06.882Z,78.79
2018-05-09T10:14:06.900Z,78.99
2018-05-09T10:15:06.913Z,80.28
2018-05-09T10:16:06.961Z,79.80
2018-05-09T10:17:06.944Z,81.66
2018-05-09T10:18:06.959Z,78.28
2018-05-09T10:19:06.976Z,77.80
2018-05-09T10:20:06.990Z,74.37
2018-05-09T10:21:07.006Z,75.22
2018-05-09T10:22:07.023Z,78.37
2018-05-09T10:23:07.039Z,76.46
2018-05-09T10:24:07.052Z,76.84
2018-05-09T10:25:07.065Z,71.08
2018-05-09T10:26:07.088Z,69.65
2018-05-09T10:27:07.099Z,72.51
2018-05-09T10:28:07.114Z,73.56
2018-05-09T10:29:07.129Z,77.67
2018-05-09T10:30:07.146Z,80.33
2018-05-09T10:31:07.160Z,77.67
2018-05-09T10:32:07.178Z,77.86
2018-05-09T10:33:07.191Z,77.28
2018-05-09T10:34:07.210Z,77.57
2018-05-09T10:35:07.225Z,74.23
2018-05-09T10:36:07.237Z,72.67
2018-05-09T10:37:07.253Z,74.29
2018-05-09T10:38:07.272Z,80.20
2018-05-09T10:39:07.282Z,79.67
2018-05-09T10:40:07.296Z,80.91
2018-05-09T10:41:07.313Z,80.33
2018-05-09T10:42:07.328Z,76.71
2018-05-09T10:43:07.342Z,78.14
2018-05-09T10:44:07.361Z,80.91
2018-05-09T10:45:07.376Z,78.52
2018-05-09T10:46:07.392Z,77.95
2018-05-09T10:47:07.405Z,75.81
2018-05-09T10:48:07.420Z,74.04
2018-05-09T10:49:07.436Z,69.37
2018-05-09T10:50:07.461Z,71.27
2018-05-09T10:51:07.472Z,69.84
2018-05-09T10:52:07.480Z,66.88
2018-05-09T10:53:07.495Z,61.16
2018-05-09T10:54:07.510Z,67.17
2018-05-09T10:55:07.531Z,73.28
2018-05-09T10:56:07.542Z,76.65
2018-05-09T10:57:07.576Z,76.46
2018-05-09T10:58:07.575Z,78.41
2018-05-09T10:59:07.591Z,79.31
2018-05-09T11:00:07.602Z,80.59
2018-05-09T11:01:07.618Z,77.06
2018-05-09T11:02:07.633Z,73.97
2018-05-09T11:03:07.650Z,64.40
2018-05-09T11:04:07.663Z,65.08
2018-05-09T11:05:07.787Z,68.58
2018-05-09T11:06:07.702Z,69.79
2018-05-09T11:07:07.718Z,74.57
2018-05-09T11:08:07.730Z,68.45
2018-05-09T11:09:07.745Z,71.25
2018-05-09T11:10:07.765Z,68.54
2018-05-09T11:11:07.776Z,68.79
2018-05-09T11:12:07.791Z,73.47
2018-05-09T11:13:07.808Z,75.66
2018-05-09T11:14:07.822Z,74.80
2018-05-09T11:15:07.839Z,77.00
2018-05-09T11:16:07.854Z,79.19
2018-05-09T11:17:07.872Z,80.81
2018-05-09T11:18:07.887Z,83.29
2018-05-09T11:19:07.902Z,82.59
2018-05-09T11:20:07.917Z,82.68
2018-05-09T11:21:07.931Z,84.63
2018-05-09T11:22:07.948Z,84.06
2018-05-09T11:23:07.965Z,81.58
2018-05-09T11:24:07.977Z,81.01
2018-05-09T11:25:07.994Z,81.14
2018-05-09T11:26:08.010Z,82.06
2018-05-09T11:27:08.025Z,82.06
2018-05-09T11:28:08.039Z,82.40
2018-05-09T11:29:08.055Z,83.58
2018-05-09T11:30:08.070Z,83.87
2018-05-09T11:31:08.087Z,83.20
2018-05-09T11:32:08.100Z,82.72
2018-05-09T11:33:08.119Z,83.39
2018-05-09T11:34:08.133Z,83.14
2018-05-09T11:35:08.147Z,81.77
2018-05-09T11:36:08.162Z,82.72
2018-05-09T11:37:08.177Z,82.06
2018-05-09T11:38:08.193Z,82.86
2018-05-09T11:39:08.208Z,82.00
2018-05-09T11:40:08.223Z,80.47
2018-05-09T11:41:08.239Z,79.90
2018-05-09T11:42:08.259Z,81.09
2018-05-09T11:43:08.274Z,82.09
2018-05-09T11:44:08.288Z,80.04
2018-05-09T11:45:08.301Z,78.89
2018-05-09T11:46:08.318Z,80.59
2018-05-09T11:47:08.334Z,76.86
2018-05-09T11:48:08.348Z,74.80
2018-05-09T11:49:08.364Z,62.46
2018-05-09T11:50:08.386Z,61.15
2018-05-09T11:51:08.395Z,60.29
2018-05-09T11:52:08.412Z,67.47
2018-05-09T11:53:08.446Z,68.62
2018-05-09T11:54:08.447Z,76.65
2018-05-09T11:55:08.462Z,63.57
2018-05-09T11:56:08.478Z,69.70
2018-05-09T11:57:08.495Z,65.11
2018-05-09T11:58:08.511Z,62.68
2018-05-09T11:59:08.527Z,68.58
2018-05-09T12:00:08.542Z,68.29
2018-05-09T12:01:08.560Z,65.45
2018-05-09T12:02:08.582Z,66.80
2018-05-09T12:03:08.593Z,64.40
2018-05-09T12:04:08.615Z,67.08
2018-05-09T12:05:08.628Z,64.98
2018-05-09T12:06:08.645Z,60.45
2018-05-09T12:07:08.663Z,60.10
2018-05-09T12:08:08.680Z,60.67
2018-05-09T12:09:08.698Z,57.20
2018-05-09T12:10:08.714Z,51.17
2018-05-09T12:11:08.731Z,65.45
2018-05-09T12:12:08.747Z,61.82
2018-05-09T12:13:08.766Z,59.05
2018-05-09T12:14:08.782Z,57.46
2018-05-09T12:15:08.799Z,54.11
2018-05-09T12:16:08.816Z,57.36
2018-05-09T12:17:08.833Z,61.69
2018-05-09T12:18:08.851Z,63.45
2018-05-09T12:19:08.871Z,61.63
2018-05-09T12:20:08.886Z,66.51
2018-05-09T12:21:08.902Z,64.63
2018-05-09T12:22:08.922Z,56.30
2018-05-09T12:23:08.937Z,54.10
2018-05-09T12:24:08.952Z,58.12
2018-05-09T12:25:08.971Z,56.01
2018-05-09T12:26:08.988Z,56.75
2018-05-09T12:27:09.007Z,57.92
2018-05-09T12:28:09.022Z,56.46
2018-05-09T12:29:09.040Z,59.65
2018-05-09T12:30:09.060Z,57.13
2018-05-09T12:31:09.074Z,60.10
2018-05-09T12:32:09.090Z,67.91
2018-05-09T12:33:09.109Z,67.78
2018-05-09T12:34:09.128Z,67.97
2018-05-09T12:35:09.145Z,66.16
2018-05-09T12:36:09.158Z,68.87
2018-05-09T12:37:09.178Z,70.97
2018-05-09T12:38:09.197Z,73.54
2018-05-09T12:39:09.212Z,65.08
2018-05-09T12:40:09.229Z,64.69
2018-05-09T12:41:09.245Z,70.95
2018-05-09T12:42:09.262Z,61.25
2018-05-09T12:43:09.279Z,60.89
2018-05-09T12:44:09.295Z,59.11
2018-05-09T12:45:09.313Z,61.98
2018-05-09T12:46:09.332Z,56.34
2018-05-09T12:47:09.345Z,57.61
2018-05-09T12:48:09.363Z,60.32
2018-05-09T12:49:09.380Z,62.93
2018-05-09T12:50:09.398Z,61.50
2018-05-09T12:51:09.415Z,59.45
2018-05-09T12:52:09.432Z,64.53
2018-05-09T12:53:09.450Z,63.96